sensor_id;sensor_type;location;lat;lon;timestamp;pressure;altitude;pressure_sealevel;temperature;humidity
54816;BME280;40715;55.752;37.884;2022-12-07T00:01:10;100217.50;;;-5.80;43.80
54816;BME280;40715;55.752;37.884;2022-12-07T00:03:39;100202.66;;;-5.85;43.74
54816;BME280;40715;55.752;37.884;2022-12-07T00:06:08;100203.38;;;-5.88;43.52
54816;BME280;40715;55.752;37.884;2022-12-07T00:08:36;100188.53;;;-5.94;43.97
54816;BME280;40715;55.752;37.884;2022-12-07T00:11:12;100216.50;;;-5.82;43.78
54816;BME280;40715;55.752;37.884;2022-12-07T00:13:40;100200.63;;;-5.91;43.67
54816;BME280;40715;55.752;37.884;2022-12-07T00:16:10;100195.66;;;-5.88;43.77
54816;BME280;40715;55.752;37.884;2022-12-07T00:18:38;100203.28;;;-5.90;43.70
54816;BME280;40715;55.752;37.884;2022-12-07T00:21:13;100213.06;;;-5.82;43.87
54816;BME280;40715;55.752;37.884;2022-12-07T00:23:42;100202.56;;;-5.87;44.00
54816;BME280;40715;55.752;37.884;2022-12-07T00:26:12;100212.66;;;-5.90;44.39
54816;BME280;40715;55.752;37.884;2022-12-07T00:28:39;100199.38;;;-5.99;43.85
54816;BME280;40715;55.752;37.884;2022-12-07T00:31:11;100189.34;;;-6.11;44.34
54816;BME280;40715;55.752;37.884;2022-12-07T00:33:39;100197.38;;;-6.05;44.52
54816;BME280;40715;55.752;37.884;2022-12-07T00:36:12;100204.19;;;-6.05;44.48
54816;BME280;40715;55.752;37.884;2022-12-07T00:38:39;100221.09;;;-6.09;44.20
54816;BME280;40715;55.752;37.884;2022-12-07T00:41:21;100206.25;;;-6.15;44.46
54816;BME280;40715;55.752;37.884;2022-12-07T00:43:49;100188.84;;;-6.20;44.07
54816;BME280;40715;55.752;37.884;2022-12-07T00:46:16;100213.78;;;-6.18;44.27
54816;BME280;40715;55.752;37.884;2022-12-07T00:48:44;100210.34;;;-6.18;44.20
54816;BME280;40715;55.752;37.884;2022-12-07T00:51:12;100208.34;;;-6.24;44.73
54816;BME280;40715;55.752;37.884;2022-12-07T00:53:40;100213.53;;;-6.22;44.12
54816;BME280;40715;55.752;37.884;2022-12-07T00:56:16;100216.91;;;-6.23;44.61
54816;BME280;40715;55.752;37.884;2022-12-07T00:58:43;100195.00;;;-6.33;44.56
54816;BME280;40715;55.752;37.884;2022-12-07T01:01:11;100180.06;;;-6.40;44.53
54816;BME280;40715;55.752;37.884;2022-12-07T01:03:38;100198.69;;;-6.28;44.71
54816;BME280;40715;55.752;37.884;2022-12-07T01:06:29;100207.34;;;-6.26;44.92
54816;BME280;40715;55.752;37.884;2022-12-07T01:08:56;100217.53;;;-6.28;44.76
54816;BME280;40715;55.752;37.884;2022-12-07T01:11:26;100180.94;;;-6.40;44.68
54816;BME280;40715;55.752;37.884;2022-12-07T01:13:55;100209.84;;;-6.28;44.79
54816;BME280;40715;55.752;37.884;2022-12-07T01:16:24;100185.19;;;-6.40;44.88
54816;BME280;40715;55.752;37.884;2022-12-07T01:18:52;100204.47;;;-6.32;44.45
54816;BME280;40715;55.752;37.884;2022-12-07T01:21:25;100172.88;;;-6.63;45.27
54816;BME280;40715;55.752;37.884;2022-12-07T01:23:52;100209.91;;;-6.43;44.73
54816;BME280;40715;55.752;37.884;2022-12-07T01:26:22;100198.91;;;-6.40;45.24
54816;BME280;40715;55.752;37.884;2022-12-07T01:28:51;100178.84;;;-6.47;45.21
54816;BME280;40715;55.752;37.884;2022-12-07T01:31:20;100199.97;;;-6.36;45.03
54816;BME280;40715;55.752;37.884;2022-12-07T01:33:51;100178.44;;;-6.55;45.13
54816;BME280;40715;55.752;37.884;2022-12-07T01:36:22;100191.03;;;-6.43;44.86
54816;BME280;40715;55.752;37.884;2022-12-07T01:38:51;100194.50;;;-6.43;45.10
54816;BME280;40715;55.752;37.884;2022-12-07T01:41:20;100191.03;;;-6.43;45.00
54816;BME280;40715;55.752;37.884;2022-12-07T01:44:17;100196.97;;;-6.44;45.01
54816;BME280;40715;55.752;37.884;2022-12-07T01:46:56;100198.56;;;-6.46;45.03
54816;BME280;40715;55.752;37.884;2022-12-07T01:49:29;100193.34;;;-6.48;44.93
54816;BME280;40715;55.752;37.884;2022-12-07T01:52:13;100198.41;;;-6.49;45.22
54816;BME280;40715;55.752;37.884;2022-12-07T01:54:42;100188.78;;;-6.53;44.96
54816;BME280;40715;55.752;37.884;2022-12-07T01:57:11;100190.38;;;-6.55;45.47
54816;BME280;40715;55.752;37.884;2022-12-07T01:59:41;100180.69;;;-6.61;45.19
54816;BME280;40715;55.752;37.884;2022-12-07T02:02:23;100197.00;;;-6.59;45.10
54816;BME280;40715;55.752;37.884;2022-12-07T02:04:54;100180.91;;;-6.56;45.09
54816;BME280;40715;55.752;37.884;2022-12-07T02:07:23;100182.50;;;-6.59;45.11
54816;BME280;40715;55.752;37.884;2022-12-07T02:09:50;100187.53;;;-6.60;45.25
54816;BME280;40715;55.752;37.884;2022-12-07T02:12:18;100153.38;;;-6.76;45.37
54816;BME280;40715;55.752;37.884;2022-12-07T02:15:06;100186.69;;;-6.61;45.63
54816;BME280;40715;55.752;37.884;2022-12-07T02:18:07;100173.00;;;-6.61;45.43
54816;BME280;40715;55.752;37.884;2022-12-07T02:29:12;100157.06;;;-6.55;45.51
54816;BME280;40715;55.752;37.884;2022-12-07T02:32:46;100178.53;;;-6.53;44.91
54816;BME280;40715;55.752;37.884;2022-12-07T02:34:49;100169.06;;;-6.54;44.88
54816;BME280;40715;55.752;37.884;2022-12-07T02:40:12;100169.69;;;-6.59;45.10
54816;BME280;40715;55.752;37.884;2022-12-07T02:42:46;100172.25;;;-6.59;45.22
54816;BME280;40715;55.752;37.884;2022-12-07T02:45:17;100171.06;;;-6.65;45.39
54816;BME280;40715;55.752;37.884;2022-12-07T02:47:48;100147.91;;;-6.82;45.47
54816;BME280;40715;55.752;37.884;2022-12-07T02:50:19;100172.22;;;-6.75;45.87
54816;BME280;40715;55.752;37.884;2022-12-07T02:52:46;100176.19;;;-6.80;45.55
54816;BME280;40715;55.752;37.884;2022-12-07T02:55:15;100191.56;;;-6.80;46.10
54816;BME280;40715;55.752;37.884;2022-12-07T03:00:31;100159.84;;;-6.82;45.87
54816;BME280;40715;55.752;37.884;2022-12-07T03:03:09;100166.41;;;-6.87;46.32
54816;BME280;40715;55.752;37.884;2022-12-07T03:08:44;100167.84;;;-6.92;46.43
54816;BME280;40715;55.752;37.884;2022-12-07T03:11:22;100153.72;;;-7.01;46.02
54816;BME280;40715;55.752;37.884;2022-12-07T03:14:03;100149.66;;;-7.12;46.87
54816;BME280;40715;55.752;37.884;2022-12-07T03:17:08;100163.59;;;-7.07;46.88
54816;BME280;40715;55.752;37.884;2022-12-07T03:19:40;100166.78;;;-7.11;46.93
54816;BME280;40715;55.752;37.884;2022-12-07T03:22:11;100160.84;;;-7.10;47.33
54816;BME280;40715;55.752;37.884;2022-12-07T03:24:48;100160.69;;;-7.13;47.58
54816;BME280;40715;55.752;37.884;2022-12-07T03:27:22;100157.94;;;-7.16;46.73
54816;BME280;40715;55.752;37.884;2022-12-07T03:29:59;100141.88;;;-7.29;47.37
54816;BME280;40715;55.752;37.884;2022-12-07T03:32:40;100174.09;;;-7.17;47.13
54816;BME280;40715;55.752;37.884;2022-12-07T03:35:27;100165.47;;;-7.19;46.63
54816;BME280;40715;55.752;37.884;2022-12-07T03:43:19;100160.34;;;-7.19;47.09
54816;BME280;40715;55.752;37.884;2022-12-07T03:49:05;100151.69;;;-7.21;47.18
54816;BME280;40715;55.752;37.884;2022-12-07T03:51:45;100143.19;;;-7.20;47.30
54816;BME280;40715;55.752;37.884;2022-12-07T03:54:26;100155.03;;;-7.07;46.65
54816;BME280;40715;55.752;37.884;2022-12-07T03:56:55;100159.63;;;-7.02;46.87
54816;BME280;40715;55.752;37.884;2022-12-07T03:59:25;100152.81;;;-7.01;47.04
54816;BME280;40715;55.752;37.884;2022-12-07T04:02:01;100150.97;;;-7.19;47.33
54816;BME280;40715;55.752;37.884;2022-12-07T04:04:30;100161.31;;;-7.17;46.96
54816;BME280;40715;55.752;37.884;2022-12-07T04:06:57;100153.00;;;-7.13;47.37
54816;BME280;40715;55.752;37.884;2022-12-07T04:09:24;100150.59;;;-7.10;47.07
54816;BME280;40715;55.752;37.884;2022-12-07T04:11:50;100154.16;;;-7.08;47.00
54816;BME280;40715;55.752;37.884;2022-12-07T04:14:17;100151.13;;;-7.16;47.25
54816;BME280;40715;55.752;37.884;2022-12-07T04:16:50;100149.66;;;-7.27;47.20
54816;BME280;40715;55.752;37.884;2022-12-07T04:19:23;100147.78;;;-7.30;47.77
54816;BME280;40715;55.752;37.884;2022-12-07T04:21:50;100136.41;;;-7.35;47.54
54816;BME280;40715;55.752;37.884;2022-12-07T04:24:17;100145.13;;;-7.31;47.10
54816;BME280;40715;55.752;37.884;2022-12-07T04:26:45;100141.53;;;-7.35;47.79
54816;BME280;40715;55.752;37.884;2022-12-07T04:29:13;100138.88;;;-7.36;47.54
54816;BME280;40715;55.752;37.884;2022-12-07T04:31:40;100149.47;;;-7.30;47.88
54816;BME280;40715;55.752;37.884;2022-12-07T04:34:07;100145.44;;;-7.26;47.84
54816;BME280;40715;55.752;37.884;2022-12-07T04:36:35;100154.16;;;-7.23;47.83
54816;BME280;40715;55.752;37.884;2022-12-07T04:39:04;100146.22;;;-7.28;47.68
54816;BME280;40715;55.752;37.884;2022-12-07T04:41:31;100150.53;;;-7.26;47.59
54816;BME280;40715;55.752;37.884;2022-12-07T04:44:03;100138.78;;;-7.23;47.71
54816;BME280;40715;55.752;37.884;2022-12-07T04:46:33;100130.41;;;-7.20;47.38
54816;BME280;40715;55.752;37.884;2022-12-07T04:49:00;100146.72;;;-7.03;47.45
54816;BME280;40715;55.752;37.884;2022-12-07T04:51:29;100146.63;;;-7.05;47.35
54816;BME280;40715;55.752;37.884;2022-12-07T04:53:56;100139.75;;;-7.06;47.21
54816;BME280;40715;55.752;37.884;2022-12-07T04:56:24;100144.69;;;-7.09;47.32
54816;BME280;40715;55.752;37.884;2022-12-07T04:58:52;100137.72;;;-7.12;47.13
54816;BME280;40715;55.752;37.884;2022-12-07T05:01:21;100141.34;;;-7.08;47.59
54816;BME280;40715;55.752;37.884;2022-12-07T05:03:48;100112.31;;;-7.23;47.45
54816;BME280;40715;55.752;37.884;2022-12-07T05:06:16;100109.03;;;-7.21;47.50
54816;BME280;40715;55.752;37.884;2022-12-07T05:08:44;100124.13;;;-7.11;46.96
54816;BME280;40715;55.752;37.884;2022-12-07T05:11:11;100143.78;;;-6.95;47.02
54816;BME280;40715;55.752;37.884;2022-12-07T05:14:03;100130.56;;;-7.02;46.98
54816;BME280;40715;55.752;37.884;2022-12-07T05:16:30;100132.69;;;-7.10;47.26
54816;BME280;40715;55.752;37.884;2022-12-07T05:18:57;100144.16;;;-7.03;47.04
54816;BME280;40715;55.752;37.884;2022-12-07T05:21:24;100147.25;;;-7.09;46.97
54816;BME280;40715;55.752;37.884;2022-12-07T05:23:51;100150.84;;;-7.05;46.80
54816;BME280;40715;55.752;37.884;2022-12-07T05:26:19;100134.69;;;-7.04;47.41
54816;BME280;40715;55.752;37.884;2022-12-07T05:28:50;100147.13;;;-6.96;47.44
54816;BME280;40715;55.752;37.884;2022-12-07T05:31:17;100156.50;;;-6.96;47.01
54816;BME280;40715;55.752;37.884;2022-12-07T05:33:45;100150.78;;;-6.92;47.33
54816;BME280;40715;55.752;37.884;2022-12-07T05:36:16;100149.09;;;-6.91;47.31
54816;BME280;40715;55.752;37.884;2022-12-07T05:38:44;100135.94;;;-6.98;46.61
54816;BME280;40715;55.752;37.884;2022-12-07T05:41:14;100131.69;;;-6.97;47.23
54816;BME280;40715;55.752;37.884;2022-12-07T05:44:01;100151.19;;;-6.84;47.40
54816;BME280;40715;55.752;37.884;2022-12-07T05:46:28;100145.81;;;-6.74;47.41
54816;BME280;40715;55.752;37.884;2022-12-07T05:48:56;100144.97;;;-6.42;47.08
54816;BME280;40715;55.752;37.884;2022-12-07T05:51:22;100156.41;;;-6.03;47.28
54816;BME280;40715;55.752;37.884;2022-12-07T05:53:50;100145.59;;;-5.63;47.32
54816;BME280;40715;55.752;37.884;2022-12-07T05:56:16;100145.25;;;-5.18;47.25
54816;BME280;40715;55.752;37.884;2022-12-07T05:58:44;100123.59;;;-4.88;47.05
54816;BME280;40715;55.752;37.884;2022-12-07T06:01:29;100144.16;;;-4.32;46.87
54816;BME280;40715;55.752;37.884;2022-12-07T06:03:57;100147.66;;;-3.92;46.26
54816;BME280;40715;55.752;37.884;2022-12-07T06:06:24;100152.38;;;-3.43;46.44
54816;BME280;40715;55.752;37.884;2022-12-07T06:08:51;100154.78;;;-3.05;46.21
54816;BME280;40715;55.752;37.884;2022-12-07T06:11:18;100148.34;;;-2.73;46.13
54816;BME280;40715;55.752;37.884;2022-12-07T06:14:04;100128.00;;;-3.09;45.17
54816;BME280;40715;55.752;37.884;2022-12-07T06:16:30;100143.88;;;-3.61;44.53
54816;BME280;40715;55.752;37.884;2022-12-07T06:18:58;100145.97;;;-4.11;44.71
54816;BME280;40715;55.752;37.884;2022-12-07T06:21:24;100143.25;;;-4.52;45.15
54816;BME280;40715;55.752;37.884;2022-12-07T06:23:53;100141.06;;;-4.80;45.18
54816;BME280;40715;55.752;37.884;2022-12-07T06:26:20;100114.72;;;-4.94;45.41
54816;BME280;40715;55.752;37.884;2022-12-07T06:28:47;100137.66;;;-4.06;46.09
54816;BME280;40715;55.752;37.884;2022-12-07T06:31:14;100148.06;;;-3.02;46.15
54816;BME280;40715;55.752;37.884;2022-12-07T06:33:42;100148.69;;;-1.96;45.67
54816;BME280;40715;55.752;37.884;2022-12-07T06:36:09;100152.41;;;-0.86;45.29
54816;BME280;40715;55.752;37.884;2022-12-07T06:38:36;100124.53;;;-0.10;44.34
54816;BME280;40715;55.752;37.884;2022-12-07T06:41:04;100143.78;;;0.96;44.37
54816;BME280;40715;55.752;37.884;2022-12-07T06:43:31;100115.56;;;1.87;43.42
54816;BME280;40715;55.752;37.884;2022-12-07T06:45:57;100141.81;;;2.94;42.37
54816;BME280;40715;55.752;37.884;2022-12-07T06:48:25;100139.41;;;3.62;41.96
54816;BME280;40715;55.752;37.884;2022-12-07T06:50:51;100152.22;;;4.11;41.12
54816;BME280;40715;55.752;37.884;2022-12-07T06:53:21;100145.81;;;4.61;40.36
54816;BME280;40715;55.752;37.884;2022-12-07T06:55:49;100147.13;;;5.06;39.57
54816;BME280;40715;55.752;37.884;2022-12-07T06:58:17;100141.44;;;5.64;39.10
54816;BME280;40715;55.752;37.884;2022-12-07T07:00:44;100144.38;;;6.21;38.20
54816;BME280;40715;55.752;37.884;2022-12-07T07:03:12;100153.19;;;6.53;37.80
54816;BME280;40715;55.752;37.884;2022-12-07T07:05:38;100148.28;;;5.48;33.20
54816;BME280;40715;55.752;37.884;2022-12-07T07:08:06;100138.63;;;5.35;35.02
54816;BME280;40715;55.752;37.884;2022-12-07T07:10:49;100145.19;;;6.08;35.46
54816;BME280;40715;55.752;37.884;2022-12-07T07:13:17;100150.41;;;6.08;33.21
54816;BME280;40715;55.752;37.884;2022-12-07T07:15:44;100149.56;;;6.18;33.03
54816;BME280;40715;55.752;37.884;2022-12-07T07:18:11;100137.34;;;6.10;32.36
54816;BME280;40715;55.752;37.884;2022-12-07T07:20:38;100126.84;;;6.07;30.86
54816;BME280;40715;55.752;37.884;2022-12-07T07:23:05;100144.44;;;6.40;32.48
54816;BME280;40715;55.752;37.884;2022-12-07T07:25:33;100141.03;;;7.29;32.57
54816;BME280;40715;55.752;37.884;2022-12-07T07:28:00;100148.81;;;7.82;31.51
54816;BME280;40715;55.752;37.884;2022-12-07T07:30:27;100147.09;;;7.77;30.02
54816;BME280;40715;55.752;37.884;2022-12-07T07:32:58;100148.91;;;7.57;30.85
54816;BME280;40715;55.752;37.884;2022-12-07T07:35:26;100137.22;;;8.43;31.12
54816;BME280;40715;55.752;37.884;2022-12-07T07:37:53;100142.38;;;8.66;30.48
54816;BME280;40715;55.752;37.884;2022-12-07T07:40:21;100144.66;;;9.15;30.40
54816;BME280;40715;55.752;37.884;2022-12-07T07:42:52;100131.00;;;9.68;29.59
54816;BME280;40715;55.752;37.884;2022-12-07T07:45:21;100147.91;;;9.44;28.00
54816;BME280;40715;55.752;37.884;2022-12-07T07:47:48;100128.75;;;9.29;26.85
54816;BME280;40715;55.752;37.884;2022-12-07T07:50:16;100141.19;;;9.07;27.87
54816;BME280;40715;55.752;37.884;2022-12-07T07:52:43;100132.97;;;8.19;25.77
54816;BME280;40715;55.752;37.884;2022-12-07T07:55:11;100136.56;;;7.88;27.35
54816;BME280;40715;55.752;37.884;2022-12-07T07:57:40;100143.53;;;8.00;27.05
54816;BME280;40715;55.752;37.884;2022-12-07T08:00:10;100135.69;;;7.91;26.81
54816;BME280;40715;55.752;37.884;2022-12-07T08:02:39;100119.47;;;8.88;27.70
54816;BME280;40715;55.752;37.884;2022-12-07T08:05:07;100125.22;;;10.13;27.14
54816;BME280;40715;55.752;37.884;2022-12-07T08:07:34;100127.44;;;11.08;26.56
54816;BME280;40715;55.752;37.884;2022-12-07T08:10:02;100124.22;;;11.40;25.52
54816;BME280;40715;55.752;37.884;2022-12-07T08:12:29;100136.31;;;11.53;24.94
54816;BME280;40715;55.752;37.884;2022-12-07T08:14:56;100124.91;;;11.53;25.89
54816;BME280;40715;55.752;37.884;2022-12-07T08:17:23;100135.78;;;11.81;25.22
54816;BME280;40715;55.752;37.884;2022-12-07T08:19:50;100125.53;;;12.14;24.91
54816;BME280;40715;55.752;37.884;2022-12-07T08:22:17;100125.97;;;11.41;25.65
54816;BME280;40715;55.752;37.884;2022-12-07T08:24:44;100130.72;;;9.03;26.42
54816;BME280;40715;55.752;37.884;2022-12-07T08:27:11;100109.56;;;6.52;27.45
54816;BME280;40715;55.752;37.884;2022-12-07T08:29:38;100105.53;;;4.34;28.43
54816;BME280;40715;55.752;37.884;2022-12-07T08:32:04;100106.84;;;2.79;29.41
54816;BME280;40715;55.752;37.884;2022-12-07T08:34:35;100106.84;;;1.44;30.04
54816;BME280;40715;55.752;37.884;2022-12-07T08:37:02;100111.97;;;0.36;30.50
54816;BME280;40715;55.752;37.884;2022-12-07T08:39:29;100095.91;;;-0.45;31.18
54816;BME280;40715;55.752;37.884;2022-12-07T08:41:57;100089.47;;;-1.14;31.90
54816;BME280;40715;55.752;37.884;2022-12-07T08:44:24;100097.53;;;-1.56;32.30
54816;BME280;40715;55.752;37.884;2022-12-07T08:46:59;100102.09;;;-1.99;32.85
54816;BME280;40715;55.752;37.884;2022-12-07T08:49:36;100098.19;;;-2.12;33.65
54816;BME280;40715;55.752;37.884;2022-12-07T08:52:05;100036.59;;;-2.49;33.84
54816;BME280;40715;55.752;37.884;2022-12-07T08:54:35;100086.50;;;-2.49;33.83
54816;BME280;40715;55.752;37.884;2022-12-07T08:57:04;100090.03;;;-2.69;34.84
54816;BME280;40715;55.752;37.884;2022-12-07T08:59:34;100085.09;;;-2.86;35.67
54816;BME280;40715;55.752;37.884;2022-12-07T09:02:03;100071.69;;;-2.98;35.64
54816;BME280;40715;55.752;37.884;2022-12-07T09:04:30;100107.09;;;-2.94;35.88
54816;BME280;40715;55.752;37.884;2022-12-07T09:06:58;100092.38;;;-2.97;35.79
54816;BME280;40715;55.752;37.884;2022-12-07T09:09:25;100073.25;;;-3.03;35.89
54816;BME280;40715;55.752;37.884;2022-12-07T09:11:52;100082.72;;;-3.02;36.35
54816;BME280;40715;55.752;37.884;2022-12-07T09:14:19;100081.97;;;-3.00;36.39
54816;BME280;40715;55.752;37.884;2022-12-07T09:16:46;100067.97;;;-3.06;36.49
54816;BME280;40715;55.752;37.884;2022-12-07T09:19:13;100075.75;;;-3.05;36.25
54816;BME280;40715;55.752;37.884;2022-12-07T09:21:40;100093.75;;;-3.06;36.49
54816;BME280;40715;55.752;37.884;2022-12-07T09:24:07;100062.06;;;-3.25;36.62
54816;BME280;40715;55.752;37.884;2022-12-07T09:26:34;100069.25;;;-3.18;36.62
54816;BME280;40715;55.752;37.884;2022-12-07T09:29:02;100059.97;;;-3.13;37.07
54816;BME280;40715;55.752;37.884;2022-12-07T09:31:29;100057.41;;;-3.13;36.87
54816;BME280;40715;55.752;37.884;2022-12-07T09:34:00;100057.84;;;-3.23;37.05
54816;BME280;40715;55.752;37.884;2022-12-07T09:36:27;100051.69;;;-3.26;36.79
54816;BME280;40715;55.752;37.884;2022-12-07T09:38:55;100044.59;;;-3.32;37.43
54816;BME280;40715;55.752;37.884;2022-12-07T09:41:23;100047.94;;;-3.35;37.54
54816;BME280;40715;55.752;37.884;2022-12-07T09:43:52;100047.88;;;-3.36;37.36
54816;BME280;40715;55.752;37.884;2022-12-07T09:46:20;100042.47;;;-3.42;37.42
54816;BME280;40715;55.752;37.884;2022-12-07T09:48:49;100049.19;;;-3.46;37.92
54816;BME280;40715;55.752;37.884;2022-12-07T09:51:24;100050.81;;;-3.48;37.75
54816;BME280;40715;55.752;37.884;2022-12-07T09:53:53;100035.88;;;-3.57;37.62
54816;BME280;40715;55.752;37.884;2022-12-07T09:56:21;100042.91;;;-3.53;37.64
54816;BME280;40715;55.752;37.884;2022-12-07T09:58:50;100043.53;;;-3.58;38.22
54816;BME280;40715;55.752;37.884;2022-12-07T10:01:20;100047.03;;;-3.56;38.09
54816;BME280;40715;55.752;37.884;2022-12-07T10:04:11;100036.63;;;-3.59;38.26
54816;BME280;40715;55.752;37.884;2022-12-07T10:06:39;100036.56;;;-3.61;38.48
54816;BME280;40715;55.752;37.884;2022-12-07T10:09:16;100028.81;;;-3.61;38.55
54816;BME280;40715;55.752;37.884;2022-12-07T10:12:00;100022.94;;;-3.58;38.53
54816;BME280;40715;55.752;37.884;2022-12-07T10:14:29;100008.09;;;-3.64;38.84
54816;BME280;40715;55.752;37.884;2022-12-07T10:17:37;100043.97;;;-3.69;38.68
54816;BME280;40715;55.752;37.884;2022-12-07T10:20:14;100012.16;;;-3.69;39.02
54816;BME280;40715;55.752;37.884;2022-12-07T10:23:02;100022.59;;;-3.87;39.54
54816;BME280;40715;55.752;37.884;2022-12-07T10:25:36;100036.41;;;-3.85;39.14
54816;BME280;40715;55.752;37.884;2022-12-07T10:36:00;100032.94;;;-4.26;40.10
54816;BME280;40715;55.752;37.884;2022-12-07T10:38:28;100001.25;;;-4.25;40.46
54816;BME280;40715;55.752;37.884;2022-12-07T10:41:07;100016.63;;;-4.27;40.76
54816;BME280;40715;55.752;37.884;2022-12-07T10:43:35;100026.38;;;-4.20;40.72
54816;BME280;40715;55.752;37.884;2022-12-07T10:49:33;100009.53;;;-4.32;40.72
54816;BME280;40715;55.752;37.884;2022-12-07T11:05:48;100003.38;;;-3.95;40.20
54816;BME280;40715;55.752;37.884;2022-12-07T11:09:03;99989.69;;;-3.94;40.48
54816;BME280;40715;55.752;37.884;2022-12-07T11:11:16;99992.28;;;-3.94;40.39
54816;BME280;40715;55.752;37.884;2022-12-07T11:17:05;99982.75;;;-4.17;40.87
54816;BME280;40715;55.752;37.884;2022-12-07T11:30:31;99985.22;;;-3.99;40.25
54816;BME280;40715;55.752;37.884;2022-12-07T11:33:21;99973.84;;;-4.04;40.38
54816;BME280;40715;55.752;37.884;2022-12-07T11:36:01;99970.47;;;-4.03;40.57
54816;BME280;40715;55.752;37.884;2022-12-07T11:38:50;99963.84;;;-3.97;40.53
54816;BME280;40715;55.752;37.884;2022-12-07T11:41:23;99972.53;;;-3.94;40.21
54816;BME280;40715;55.752;37.884;2022-12-07T11:47:04;99977.44;;;-4.00;40.48
54816;BME280;40715;55.752;37.884;2022-12-07T11:49:54;99975.75;;;-4.00;40.37
54816;BME280;40715;55.752;37.884;2022-12-07T11:52:46;99963.75;;;-3.99;40.95
54816;BME280;40715;55.752;37.884;2022-12-07T11:58:22;99953.31;;;-4.02;40.59
54816;BME280;40715;55.752;37.884;2022-12-07T12:01:14;99955.09;;;-4.01;40.55
54816;BME280;40715;55.752;37.884;2022-12-07T12:03:49;99946.44;;;-4.03;40.92
54816;BME280;40715;55.752;37.884;2022-12-07T12:06:19;99944.34;;;-4.12;41.00
54816;BME280;40715;55.752;37.884;2022-12-07T12:08:58;99929.78;;;-4.32;41.36
54816;BME280;40715;55.752;37.884;2022-12-07T12:25:23;99933.28;;;-4.30;41.74
54816;BME280;40715;55.752;37.884;2022-12-07T12:27:53;99940.06;;;-4.32;41.63
54816;BME280;40715;55.752;37.884;2022-12-07T12:33:20;99925.00;;;-4.44;41.77
54816;BME280;40715;55.752;37.884;2022-12-07T12:39:08;99907.94;;;-4.62;42.19
54816;BME280;40715;55.752;37.884;2022-12-07T12:46:47;99940.31;;;-4.67;42.55
54816;BME280;40715;55.752;37.884;2022-12-07T12:51:47;99885.50;;;-5.05;42.64
54816;BME280;40715;55.752;37.884;2022-12-07T12:56:51;99922.59;;;-5.00;42.96
54816;BME280;40715;55.752;37.884;2022-12-07T12:59:26;99906.53;;;-5.14;43.51
54816;BME280;40715;55.752;37.884;2022-12-07T13:10:33;99919.97;;;-5.20;43.45
54816;BME280;40715;55.752;37.884;2022-12-07T13:33:51;99928.63;;;-5.55;44.16
54816;BME280;40715;55.752;37.884;2022-12-07T13:36:31;99920.25;;;-5.51;44.13
54816;BME280;40715;55.752;37.884;2022-12-07T13:41:42;99930.38;;;-5.54;44.32
54816;BME280;40715;55.752;37.884;2022-12-07T13:44:14;99930.38;;;-5.54;44.39
54816;BME280;40715;55.752;37.884;2022-12-07T13:49:32;99938.81;;;-5.57;44.66
54816;BME280;40715;55.752;37.884;2022-12-07T13:52:23;99919.81;;;-5.60;44.24
54816;BME280;40715;55.752;37.884;2022-12-07T13:54:57;99918.94;;;-5.61;44.50
54816;BME280;40715;55.752;37.884;2022-12-07T13:57:26;99922.03;;;-5.68;44.93
54816;BME280;40715;55.752;37.884;2022-12-07T13:59:53;99907.88;;;-5.78;44.71
54816;BME280;40715;55.752;37.884;2022-12-07T14:02:27;99917.19;;;-5.80;45.25
54816;BME280;40715;55.752;37.884;2022-12-07T14:12:57;99906.75;;;-5.83;45.79
54816;BME280;40715;55.752;37.884;2022-12-07T14:15:34;99911.81;;;-5.84;45.76
54816;BME280;40715;55.752;37.884;2022-12-07T14:18:02;99907.66;;;-5.82;45.70
54816;BME280;40715;55.752;37.884;2022-12-07T14:20:36;99906.47;;;-5.89;45.44
54816;BME280;40715;55.752;37.884;2022-12-07T14:23:04;99910.03;;;-5.87;45.50
54816;BME280;40715;55.752;37.884;2022-12-07T14:25:49;99872.19;;;-6.09;45.74
54816;BME280;40715;55.752;37.884;2022-12-07T14:28:37;99919.38;;;-5.87;45.59
54816;BME280;40715;55.752;37.884;2022-12-07T14:31:21;99903.91;;;-5.89;45.69
54816;BME280;40715;55.752;37.884;2022-12-07T14:33:59;99896.06;;;-5.92;45.10
54816;BME280;40715;55.752;37.884;2022-12-07T14:36:26;99893.66;;;-5.89;45.67
54816;BME280;40715;55.752;37.884;2022-12-07T14:38:53;99882.31;;;-5.94;45.68
54816;BME280;40715;55.752;37.884;2022-12-07T14:41:23;99890.16;;;-5.91;45.35
54816;BME280;40715;55.752;37.884;2022-12-07T14:44:12;99899.44;;;-5.93;45.29
54816;BME280;40715;55.752;37.884;2022-12-07T14:46:50;99884.19;;;-5.90;46.05
54816;BME280;40715;55.752;37.884;2022-12-07T14:49:37;99884.03;;;-5.93;45.51
54816;BME280;40715;55.752;37.884;2022-12-07T14:52:05;99889.19;;;-5.93;45.57
54816;BME280;40715;55.752;37.884;2022-12-07T14:54:58;99901.28;;;-5.91;46.10
54816;BME280;40715;55.752;37.884;2022-12-07T14:57:24;99873.53;;;-5.99;46.09
54816;BME280;40715;55.752;37.884;2022-12-07T14:59:51;99884.88;;;-5.94;45.69
54816;BME280;40715;55.752;37.884;2022-12-07T15:02:18;99899.38;;;-5.95;45.65
54816;BME280;40715;55.752;37.884;2022-12-07T15:04:45;99887.34;;;-5.96;45.64
54816;BME280;40715;55.752;37.884;2022-12-07T15:07:19;99884.88;;;-5.94;45.99
54816;BME280;40715;55.752;37.884;2022-12-07T15:09:48;99881.28;;;-5.98;46.20
54816;BME280;40715;55.752;37.884;2022-12-07T15:12:15;99850.88;;;-6.08;46.10
54816;BME280;40715;55.752;37.884;2022-12-07T15:14:42;99883.97;;;-5.95;46.18
54816;BME280;40715;55.752;37.884;2022-12-07T15:17:11;99884.78;;;-5.96;46.29
54816;BME280;40715;55.752;37.884;2022-12-07T15:19:51;99871.91;;;-5.97;46.37
54816;BME280;40715;55.752;37.884;2022-12-07T15:22:18;99885.66;;;-5.95;46.20
54816;BME280;40715;55.752;37.884;2022-12-07T15:24:45;99874.31;;;-6.00;46.63
54816;BME280;40715;55.752;37.884;2022-12-07T15:27:12;99873.63;;;-5.96;46.02
54816;BME280;40715;55.752;37.884;2022-12-07T15:29:39;99870.16;;;-5.98;46.58